sensor_id;sensor_type;location;lat;lon;timestamp;temperature;humidity
33594;DHT22;19920;52.242;20.940;2023-05-10T00:00:57;9.70;99.90
33594;DHT22;19920;52.242;20.940;2023-05-10T00:03:22;9.70;99.90
33594;DHT22;19920;52.242;20.940;2023-05-10T00:05:48;9.60;99.90
33594;DHT22;19920;52.242;20.940;2023-05-10T00:08:14;9.60;99.90
33594;DHT22;19920;52.242;20.940;2023-05-10T00:10:40;9.60;99.90
33594;DHT22;19920;52.242;20.940;2023-05-10T00:13:06;9.60;99.90
33594;DHT22;19920;52.242;20.940;2023-05-10T00:15:31;9.60;99.90
33594;DHT22;19920;52.242;20.940;2023-05-10T00:17:57;9.50;99.90
33594;DHT22;19920;52.242;20.940;2023-05-10T00:20:23;9.50;99.90
33594;DHT22;19920;52.242;20.940;2023-05-10T00:22:48;9.50;99.90
33594;DHT22;19920;52.242;20.940;2023-05-10T00:25:15;9.40;99.90
33594;DHT22;19920;52.242;20.940;2023-05-10T00:27:41;9.40;99.90
33594;DHT22;19920;52.242;20.940;2023-05-10T00:30:07;9.40;99.90
33594;DHT22;19920;52.242;20.940;2023-05-10T00:32:33;9.40;99.90
33594;DHT22;19920;52.242;20.940;2023-05-10T00:34:58;9.30;99.90
33594;DHT22;19920;52.242;20.940;2023-05-10T00:37:24;9.30;99.90
33594;DHT22;19920;52.242;20.940;2023-05-10T00:39:50;9.30;99.90
33594;DHT22;19920;52.242;20.940;2023-05-10T00:42:15;9.20;99.90
33594;DHT22;19920;52.242;20.940;2023-05-10T00:44:41;9.20;99.90
33594;DHT22;19920;52.242;20.940;2023-05-10T00:47:07;9.20;99.90
33594;DHT22;19920;52.242;20.940;2023-05-10T00:49:33;9.20;99.90
33594;DHT22;19920;52.242;20.940;2023-05-10T00:51:59;9.30;99.90
33594;DHT22;19920;52.242;20.940;2023-05-10T00:54:25;9.30;99.90
33594;DHT22;19920;52.242;20.940;2023-05-10T00:56:51;9.20;99.90
33594;DHT22;19920;52.242;20.940;2023-05-10T00:59:17;9.20;99.90
33594;DHT22;19920;52.242;20.940;2023-05-10T01:01:46;9.20;99.90
33594;DHT22;19920;52.242;20.940;2023-05-10T01:04:13;9.20;99.90
33594;DHT22;19920;52.242;20.940;2023-05-10T01:06:42;9.20;99.90
33594;DHT22;19920;52.242;20.940;2023-05-10T01:09:08;9.10;99.90
33594;DHT22;19920;52.242;20.940;2023-05-10T01:11:35;9.10;99.90
33594;DHT22;19920;52.242;20.940;2023-05-10T01:14:02;9.00;99.90
33594;DHT22;19920;52.242;20.940;2023-05-10T01:16:31;9.00;99.90
33594;DHT22;19920;52.242;20.940;2023-05-10T01:18:57;9.00;99.90
33594;DHT22;19920;52.242;20.940;2023-05-10T01:27:31;9.00;99.90
33594;DHT22;19920;52.242;20.940;2023-05-10T01:30:19;8.90;99.90
33594;DHT22;19920;52.242;20.940;2023-05-10T01:43:55;8.70;99.90
33594;DHT22;19920;52.242;20.940;2023-05-10T01:46:37;8.70;99.90
33594;DHT22;19920;52.242;20.940;2023-05-10T01:49:08;8.70;99.90
33594;DHT22;19920;52.242;20.940;2023-05-10T01:51:49;8.70;99.90
33594;DHT22;19920;52.242;20.940;2023-05-10T01:54:18;8.60;99.90
33594;DHT22;19920;52.242;20.940;2023-05-10T01:56:47;8.60;99.90
33594;DHT22;19920;52.242;20.940;2023-05-10T01:59:17;8.60;99.90
33594;DHT22;19920;52.242;20.940;2023-05-10T02:01:45;8.60;99.90
33594;DHT22;19920;52.242;20.940;2023-05-10T02:04:13;8.60;99.90
33594;DHT22;19920;52.242;20.940;2023-05-10T02:06:41;8.50;99.90
33594;DHT22;19920;52.242;20.940;2023-05-10T02:09:09;8.50;99.90
33594;DHT22;19920;52.242;20.940;2023-05-10T02:11:38;8.50;99.90
33594;DHT22;19920;52.242;20.940;2023-05-10T02:14:07;8.50;99.90
33594;DHT22;19920;52.242;20.940;2023-05-10T02:16:33;8.50;99.90
33594;DHT22;19920;52.242;20.940;2023-05-10T02:19:01;8.40;99.90
33594;DHT22;19920;52.242;20.940;2023-05-10T02:21:28;8.40;99.90
33594;DHT22;19920;52.242;20.940;2023-05-10T02:23:55;8.50;99.90
33594;DHT22;19920;52.242;20.940;2023-05-10T02:26:23;8.40;99.90
33594;DHT22;19920;52.242;20.940;2023-05-10T02:28:51;8.40;99.90
33594;DHT22;19920;52.242;20.940;2023-05-10T02:31:18;8.40;99.90
33594;DHT22;19920;52.242;20.940;2023-05-10T02:33:44;8.30;99.90
33594;DHT22;19920;52.242;20.940;2023-05-10T02:36:12;8.30;99.90
33594;DHT22;19920;52.242;20.940;2023-05-10T02:38:39;8.30;99.90
33594;DHT22;19920;52.242;20.940;2023-05-10T02:41:07;8.30;99.90
33594;DHT22;19920;52.242;20.940;2023-05-10T02:43:34;8.30;99.90
33594;DHT22;19920;52.242;20.940;2023-05-10T02:46:00;8.30;99.90
33594;DHT22;19920;52.242;20.940;2023-05-10T02:48:26;8.30;99.90
33594;DHT22;19920;52.242;20.940;2023-05-10T02:50:53;8.20;99.90
33594;DHT22;19920;52.242;20.940;2023-05-10T02:53:23;8.30;99.90
33594;DHT22;19920;52.242;20.940;2023-05-10T02:55:51;8.20;99.90
33594;DHT22;19920;52.242;20.940;2023-05-10T02:58:18;8.10;99.90
33594;DHT22;19920;52.242;20.940;2023-05-10T03:00:45;8.20;99.90
33594;DHT22;19920;52.242;20.940;2023-05-10T03:03:11;8.20;99.90
33594;DHT22;19920;52.242;20.940;2023-05-10T03:05:37;8.10;99.90
33594;DHT22;19920;52.242;20.940;2023-05-10T03:08:03;8.10;99.90
33594;DHT22;19920;52.242;20.940;2023-05-10T03:10:31;8.20;99.90
33594;DHT22;19920;52.242;20.940;2023-05-10T03:13:16;8.10;99.90
33594;DHT22;19920;52.242;20.940;2023-05-10T03:15:58;8.10;99.90
33594;DHT22;19920;52.242;20.940;2023-05-10T03:18:43;8.10;99.90
33594;DHT22;19920;52.242;20.940;2023-05-10T03:21:11;8.10;99.90
33594;DHT22;19920;52.242;20.940;2023-05-10T03:23:53;8.10;99.90
33594;DHT22;19920;52.242;20.940;2023-05-10T03:26:28;8.10;99.90
33594;DHT22;19920;52.242;20.940;2023-05-10T03:28:55;8.10;99.90
33594;DHT22;19920;52.242;20.940;2023-05-10T03:31:21;8.10;99.90
33594;DHT22;19920;52.242;20.940;2023-05-10T03:33:48;8.20;99.90
33594;DHT22;19920;52.242;20.940;2023-05-10T03:36:14;8.10;99.90
33594;DHT22;19920;52.242;20.940;2023-05-10T03:38:39;8.20;99.90
33594;DHT22;19920;52.242;20.940;2023-05-10T03:41:05;8.20;99.90
33594;DHT22;19920;52.242;20.940;2023-05-10T03:43:30;8.20;99.90
33594;DHT22;19920;52.242;20.940;2023-05-10T03:45:56;8.30;99.90
33594;DHT22;19920;52.242;20.940;2023-05-10T03:48:22;8.40;99.90
33594;DHT22;19920;52.242;20.940;2023-05-10T03:50:47;8.40;99.90
33594;DHT22;19920;52.242;20.940;2023-05-10T03:53:15;8.40;99.90
33594;DHT22;19920;52.242;20.940;2023-05-10T03:55:40;8.40;99.90
33594;DHT22;19920;52.242;20.940;2023-05-10T03:58:06;8.50;99.90
33594;DHT22;19920;52.242;20.940;2023-05-10T04:00:32;8.60;99.90
33594;DHT22;19920;52.242;20.940;2023-05-10T04:02:58;8.60;99.90
33594;DHT22;19920;52.242;20.940;2023-05-10T04:05:23;8.70;99.90
33594;DHT22;19920;52.242;20.940;2023-05-10T04:07:49;8.70;99.90
33594;DHT22;19920;52.242;20.940;2023-05-10T04:10:15;8.70;99.90
33594;DHT22;19920;52.242;20.940;2023-05-10T04:12:42;8.70;99.90
33594;DHT22;19920;52.242;20.940;2023-05-10T04:15:08;8.80;99.90
33594;DHT22;19920;52.242;20.940;2023-05-10T04:17:33;8.80;99.90
33594;DHT22;19920;52.242;20.940;2023-05-10T04:19:59;8.90;99.90
33594;DHT22;19920;52.242;20.940;2023-05-10T04:22:25;8.90;99.90
33594;DHT22;19920;52.242;20.940;2023-05-10T04:24:50;9.00;99.90
33594;DHT22;19920;52.242;20.940;2023-05-10T04:27:16;9.10;99.90
33594;DHT22;19920;52.242;20.940;2023-05-10T04:29:42;9.10;99.90
33594;DHT22;19920;52.242;20.940;2023-05-10T04:32:08;9.20;99.90
33594;DHT22;19920;52.242;20.940;2023-05-10T04:34:35;9.30;99.90
33594;DHT22;19920;52.242;20.940;2023-05-10T04:37:01;9.30;99.90
33594;DHT22;19920;52.242;20.940;2023-05-10T04:39:27;9.40;99.90
33594;DHT22;19920;52.242;20.940;2023-05-10T04:41:52;9.30;99.90
33594;DHT22;19920;52.242;20.940;2023-05-10T04:44:18;9.40;99.90
33594;DHT22;19920;52.242;20.940;2023-05-10T04:46:43;9.50;99.90
33594;DHT22;19920;52.242;20.940;2023-05-10T04:49:09;9.50;99.90
33594;DHT22;19920;52.242;20.940;2023-05-10T04:51:35;9.60;99.90
33594;DHT22;19920;52.242;20.940;2023-05-10T04:54:00;9.70;99.90
33594;DHT22;19920;52.242;20.940;2023-05-10T04:56:26;9.80;99.90
33594;DHT22;19920;52.242;20.940;2023-05-10T04:58:51;9.80;99.90
33594;DHT22;19920;52.242;20.940;2023-05-10T05:01:17;9.90;99.90
33594;DHT22;19920;52.242;20.940;2023-05-10T05:03:43;9.90;99.90
33594;DHT22;19920;52.242;20.940;2023-05-10T05:06:08;10.00;99.90
33594;DHT22;19920;52.242;20.940;2023-05-10T05:08:34;10.10;99.90
33594;DHT22;19920;52.242;20.940;2023-05-10T05:11:00;10.10;99.90
33594;DHT22;19920;52.242;20.940;2023-05-10T05:13:25;10.20;99.90
33594;DHT22;19920;52.242;20.940;2023-05-10T05:15:51;10.30;99.90
33594;DHT22;19920;52.242;20.940;2023-05-10T05:18:16;10.40;99.90
33594;DHT22;19920;52.242;20.940;2023-05-10T05:20:42;10.50;99.90
33594;DHT22;19920;52.242;20.940;2023-05-10T05:23:08;10.60;99.90
33594;DHT22;19920;52.242;20.940;2023-05-10T05:25:33;10.70;99.90
33594;DHT22;19920;52.242;20.940;2023-05-10T05:27:59;10.80;99.90
33594;DHT22;19920;52.242;20.940;2023-05-10T05:30:25;10.80;99.90
33594;DHT22;19920;52.242;20.940;2023-05-10T05:32:50;11.00;99.90
33594;DHT22;19920;52.242;20.940;2023-05-10T05:35:16;11.00;99.90
33594;DHT22;19920;52.242;20.940;2023-05-10T05:37:42;11.10;99.90
33594;DHT22;19920;52.242;20.940;2023-05-10T05:40:08;11.10;99.90
33594;DHT22;19920;52.242;20.940;2023-05-10T05:42:33;11.10;99.90
33594;DHT22;19920;52.242;20.940;2023-05-10T05:44:59;11.20;99.90
33594;DHT22;19920;52.242;20.940;2023-05-10T05:47:25;11.20;99.90
33594;DHT22;19920;52.242;20.940;2023-05-10T05:49:50;11.40;99.90
33594;DHT22;19920;52.242;20.940;2023-05-10T05:52:16;11.40;99.90
33594;DHT22;19920;52.242;20.940;2023-05-10T05:54:42;11.40;99.90
33594;DHT22;19920;52.242;20.940;2023-05-10T05:57:07;11.60;99.90
33594;DHT22;19920;52.242;20.940;2023-05-10T05:59:34;11.60;99.90
33594;DHT22;19920;52.242;20.940;2023-05-10T06:01:59;11.80;99.90
33594;DHT22;19920;52.242;20.940;2023-05-10T06:04:26;11.80;99.90
33594;DHT22;19920;52.242;20.940;2023-05-10T06:06:51;11.80;99.90
33594;DHT22;19920;52.242;20.940;2023-05-10T06:09:17;11.90;99.90
33594;DHT22;19920;52.242;20.940;2023-05-10T06:11:42;11.90;99.90
33594;DHT22;19920;52.242;20.940;2023-05-10T06:14:08;12.10;99.90
33594;DHT22;19920;52.242;20.940;2023-05-10T06:16:34;12.20;99.90
33594;DHT22;19920;52.242;20.940;2023-05-10T06:19:01;12.20;99.90
33594;DHT22;19920;52.242;20.940;2023-05-10T06:21:26;12.20;99.90
33594;DHT22;19920;52.242;20.940;2023-05-10T06:23:52;12.30;99.90
33594;DHT22;19920;52.242;20.940;2023-05-10T06:26:17;12.40;99.90
33594;DHT22;19920;52.242;20.940;2023-05-10T06:28:43;12.50;99.90
33594;DHT22;19920;52.242;20.940;2023-05-10T06:31:09;12.50;99.90
33594;DHT22;19920;52.242;20.940;2023-05-10T06:33:36;12.60;99.90
33594;DHT22;19920;52.242;20.940;2023-05-10T06:36:02;12.70;99.90
33594;DHT22;19920;52.242;20.940;2023-05-10T06:38:28;12.90;99.90
33594;DHT22;19920;52.242;20.940;2023-05-10T06:40:53;12.90;99.90
33594;DHT22;19920;52.242;20.940;2023-05-10T06:43:19;12.90;99.90
33594;DHT22;19920;52.242;20.940;2023-05-10T06:45:45;13.00;99.90
33594;DHT22;19920;52.242;20.940;2023-05-10T06:48:10;13.10;99.90
33594;DHT22;19920;52.242;20.940;2023-05-10T06:50:36;13.10;99.90
33594;DHT22;19920;52.242;20.940;2023-05-10T06:53:02;13.20;99.90
33594;DHT22;19920;52.242;20.940;2023-05-10T06:55:27;13.30;99.90
33594;DHT22;19920;52.242;20.940;2023-05-10T06:57:54;13.30;99.90
33594;DHT22;19920;52.242;20.940;2023-05-10T07:00:19;13.40;99.90
33594;DHT22;19920;52.242;20.940;2023-05-10T07:02:46;13.50;99.90
33594;DHT22;19920;52.242;20.940;2023-05-10T07:05:12;13.60;99.90
33594;DHT22;19920;52.242;20.940;2023-05-10T07:07:38;13.70;99.90
33594;DHT22;19920;52.242;20.940;2023-05-10T07:10:04;13.80;99.90
33594;DHT22;19920;52.242;20.940;2023-05-10T07:12:30;13.90;99.90
33594;DHT22;19920;52.242;20.940;2023-05-10T07:14:55;14.10;99.90
33594;DHT22;19920;52.242;20.940;2023-05-10T07:17:21;14.10;99.90
33594;DHT22;19920;52.242;20.940;2023-05-10T07:19:47;14.30;99.90
33594;DHT22;19920;52.242;20.940;2023-05-10T07:22:12;14.40;99.90
33594;DHT22;19920;52.242;20.940;2023-05-10T07:24:38;14.50;99.90
33594;DHT22;19920;52.242;20.940;2023-05-10T07:27:04;14.50;99.90
33594;DHT22;19920;52.242;20.940;2023-05-10T07:29:29;14.60;99.90
33594;DHT22;19920;52.242;20.940;2023-05-10T07:31:55;14.70;99.90
33594;DHT22;19920;52.242;20.940;2023-05-10T07:34:21;14.80;99.90
33594;DHT22;19920;52.242;20.940;2023-05-10T07:36:47;14.90;99.90
33594;DHT22;19920;52.242;20.940;2023-05-10T07:39:13;14.90;99.90
33594;DHT22;19920;52.242;20.940;2023-05-10T07:41:38;15.10;99.90
33594;DHT22;19920;52.242;20.940;2023-05-10T07:44:05;15.20;99.90
33594;DHT22;19920;52.242;20.940;2023-05-10T07:46:31;15.30;99.90
33594;DHT22;19920;52.242;20.940;2023-05-10T07:48:57;15.30;99.90
33594;DHT22;19920;52.242;20.940;2023-05-10T07:51:22;15.30;99.90
33594;DHT22;19920;52.242;20.940;2023-05-10T07:53:48;15.40;99.90
33594;DHT22;19920;52.242;20.940;2023-05-10T07:58:47;15.40;97.90
33594;DHT22;19920;52.242;20.940;2023-05-10T08:01:13;15.50;98.80
33594;DHT22;19920;52.242;20.940;2023-05-10T08:03:38;15.60;99.30
33594;DHT22;19920;52.242;20.940;2023-05-10T08:06:04;15.60;96.60
33594;DHT22;19920;52.242;20.940;2023-05-10T08:08:30;15.60;96.70
33594;DHT22;19920;52.242;20.940;2023-05-10T08:10:55;15.70;96.20
33594;DHT22;19920;52.242;20.940;2023-05-10T08:13:21;15.70;96.60
33594;DHT22;19920;52.242;20.940;2023-05-10T08:15:47;15.70;95.90
33594;DHT22;19920;52.242;20.940;2023-05-10T08:18:13;15.80;96.20
33594;DHT22;19920;52.242;20.940;2023-05-10T08:20:38;15.70;95.10
33594;DHT22;19920;52.242;20.940;2023-05-10T08:23:04;15.80;95.20
33594;DHT22;19920;52.242;20.940;2023-05-10T08:25:31;16.00;95.40
33594;DHT22;19920;52.242;20.940;2023-05-10T08:27:57;16.00;96.00
33594;DHT22;19920;52.242;20.940;2023-05-10T08:30:22;16.00;95.80
33594;DHT22;19920;52.242;20.940;2023-05-10T08:32:48;16.10;95.70
33594;DHT22;19920;52.242;20.940;2023-05-10T08:35:15;16.20;95.30
33594;DHT22;19920;52.242;20.940;2023-05-10T08:37:41;16.40;94.90
33594;DHT22;19920;52.242;20.940;2023-05-10T08:40:08;16.40;94.60
33594;DHT22;19920;52.242;20.940;2023-05-10T08:42:40;16.40;94.30
33594;DHT22;19920;52.242;20.940;2023-05-10T08:45:10;16.50;92.80
33594;DHT22;19920;52.242;20.940;2023-05-10T08:47:37;16.60;92.50
33594;DHT22;19920;52.242;20.940;2023-05-10T08:50:03;16.60;92.60
33594;DHT22;19920;52.242;20.940;2023-05-10T08:52:30;16.50;91.80
33594;DHT22;19920;52.242;20.940;2023-05-10T08:54:58;16.50;91.90
33594;DHT22;19920;52.242;20.940;2023-05-10T08:57:24;16.50;92.30
33594;DHT22;19920;52.242;20.940;2023-05-10T08:59:50;16.60;92.50
33594;DHT22;19920;52.242;20.940;2023-05-10T09:02:18;16.70;92.30
33594;DHT22;19920;52.242;20.940;2023-05-10T09:04:44;16.90;93.10
33594;DHT22;19920;52.242;20.940;2023-05-10T09:07:10;17.00;93.60
33594;DHT22;19920;52.242;20.940;2023-05-10T09:09:36;17.10;92.60
33594;DHT22;19920;52.242;20.940;2023-05-10T09:12:02;17.20;92.90
33594;DHT22;19920;52.242;20.940;2023-05-10T09:14:29;17.10;90.40
33594;DHT22;19920;52.242;20.940;2023-05-10T09:16:56;17.20;90.90
33594;DHT22;19920;52.242;20.940;2023-05-10T09:19:22;17.30;90.70
33594;DHT22;19920;52.242;20.940;2023-05-10T09:21:48;17.20;90.10
33594;DHT22;19920;52.242;20.940;2023-05-10T09:24:15;17.20;89.70
33594;DHT22;19920;52.242;20.940;2023-05-10T09:26:47;17.20;88.80
33594;DHT22;19920;52.242;20.940;2023-05-10T09:29:14;17.20;90.90
33594;DHT22;19920;52.242;20.940;2023-05-10T09:31:58;17.40;89.20
33594;DHT22;19920;52.242;20.940;2023-05-10T09:34:32;17.40;90.10
33594;DHT22;19920;52.242;20.940;2023-05-10T09:37:01;17.40;89.70
33594;DHT22;19920;52.242;20.940;2023-05-10T09:39:37;17.40;90.70
33594;DHT22;19920;52.242;20.940;2023-05-10T09:42:07;17.50;90.20
33594;DHT22;19920;52.242;20.940;2023-05-10T09:44:34;17.40;88.90
33594;DHT22;19920;52.242;20.940;2023-05-10T09:47:01;17.50;90.20
33594;DHT22;19920;52.242;20.940;2023-05-10T09:49:27;17.50;89.50
33594;DHT22;19920;52.242;20.940;2023-05-10T09:52:02;17.50;89.70
33594;DHT22;19920;52.242;20.940;2023-05-10T09:54:28;17.60;90.30
33594;DHT22;19920;52.242;20.940;2023-05-10T09:56:54;17.70;89.40
33594;DHT22;19920;52.242;20.940;2023-05-10T09:59:20;17.80;90.00
33594;DHT22;19920;52.242;20.940;2023-05-10T10:01:50;17.90;90.30
33594;DHT22;19920;52.242;20.940;2023-05-10T10:04:17;18.10;90.00
33594;DHT22;19920;52.242;20.940;2023-05-10T10:06:42;18.20;87.60
33594;DHT22;19920;52.242;20.940;2023-05-10T10:09:09;18.10;89.00
33594;DHT22;19920;52.242;20.940;2023-05-10T10:11:38;18.10;86.90
33594;DHT22;19920;52.242;20.940;2023-05-10T10:14:04;18.10;90.00
33594;DHT22;19920;52.242;20.940;2023-05-10T10:16:31;18.30;89.20
33594;DHT22;19920;52.242;20.940;2023-05-10T10:18:57;18.40;89.50
33594;DHT22;19920;52.242;20.940;2023-05-10T10:21:23;18.40;88.90
33594;DHT22;19920;52.242;20.940;2023-05-10T10:23:49;18.40;86.40
33594;DHT22;19920;52.242;20.940;2023-05-10T10:26:16;18.50;86.90
33594;DHT22;19920;52.242;20.940;2023-05-10T10:36:24;18.50;86.50
33594;DHT22;19920;52.242;20.940;2023-05-10T10:52:23;18.60;84.70
33594;DHT22;19920;52.242;20.940;2023-05-10T10:54:57;18.60;83.60
33594;DHT22;19920;52.242;20.940;2023-05-10T10:57:24;18.50;85.40
33594;DHT22;19920;52.242;20.940;2023-05-10T10:59:53;18.70;85.30
33594;DHT22;19920;52.242;20.940;2023-05-10T11:02:43;18.80;84.80
33594;DHT22;19920;52.242;20.940;2023-05-10T11:05:39;18.80;83.50
33594;DHT22;19920;52.242;20.940;2023-05-10T11:18:39;19.10;82.80
33594;DHT22;19920;52.242;20.940;2023-05-10T11:21:05;19.00;83.60
33594;DHT22;19920;52.242;20.940;2023-05-10T11:23:56;19.10;84.50
33594;DHT22;19920;52.242;20.940;2023-05-10T11:26:30;19.10;82.20
33594;DHT22;19920;52.242;20.940;2023-05-10T11:28:56;19.20;82.60
33594;DHT22;19920;52.242;20.940;2023-05-10T11:31:22;19.20;82.10
33594;DHT22;19920;52.242;20.940;2023-05-10T11:33:50;19.20;81.90
33594;DHT22;19920;52.242;20.940;2023-05-10T11:36:21;19.20;84.20
33594;DHT22;19920;52.242;20.940;2023-05-10T11:38:48;19.30;83.00
33594;DHT22;19920;52.242;20.940;2023-05-10T11:41:16;19.30;82.80
33594;DHT22;19920;52.242;20.940;2023-05-10T11:43:42;19.40;84.60
33594;DHT22;19920;52.242;20.940;2023-05-10T11:46:11;19.50;84.90
33594;DHT22;19920;52.242;20.940;2023-05-10T11:48:39;19.60;83.20
33594;DHT22;19920;52.242;20.940;2023-05-10T11:51:07;19.30;80.00
33594;DHT22;19920;52.242;20.940;2023-05-10T11:53:33;19.30;82.70
33594;DHT22;19920;52.242;20.940;2023-05-10T11:56:06;19.40;82.00
33594;DHT22;19920;52.242;20.940;2023-05-10T11:58:34;19.50;84.50
33594;DHT22;19920;52.242;20.940;2023-05-10T12:01:01;19.50;81.90
33594;DHT22;19920;52.242;20.940;2023-05-10T12:03:27;19.70;83.80
33594;DHT22;19920;52.242;20.940;2023-05-10T12:05:54;19.60;81.70
33594;DHT22;19920;52.242;20.940;2023-05-10T12:08:22;19.50;82.30
33594;DHT22;19920;52.242;20.940;2023-05-10T12:10:50;19.50;84.40
33594;DHT22;19920;52.242;20.940;2023-05-10T12:13:15;19.70;84.10
33594;DHT22;19920;52.242;20.940;2023-05-10T12:15:43;19.70;81.30
33594;DHT22;19920;52.242;20.940;2023-05-10T12:18:09;19.80;83.20
33594;DHT22;19920;52.242;20.940;2023-05-10T12:20:36;19.90;81.90
33594;DHT22;19920;52.242;20.940;2023-05-10T12:23:02;19.90;79.70
33594;DHT22;19920;52.242;20.940;2023-05-10T12:25:34;20.00;80.90
33594;DHT22;19920;52.242;20.940;2023-05-10T12:28:02;20.00;82.80
33594;DHT22;19920;52.242;20.940;2023-05-10T12:30:33;20.10;80.80
33594;DHT22;19920;52.242;20.940;2023-05-10T12:33:17;20.20;80.20
33594;DHT22;19920;52.242;20.940;2023-05-10T12:35:51;20.30;80.60
33594;DHT22;19920;52.242;20.940;2023-05-10T12:40:54;20.30;81.20
33594;DHT22;19920;52.242;20.940;2023-05-10T12:43:19;20.30;81.50
33594;DHT22;19920;52.242;20.940;2023-05-10T12:45:45;20.30;78.80
33594;DHT22;19920;52.242;20.940;2023-05-10T12:48:13;20.30;78.00
33594;DHT22;19920;52.242;20.940;2023-05-10T12:50:39;20.40;80.30
33594;DHT22;19920;52.242;20.940;2023-05-10T12:53:04;20.50;80.50
33594;DHT22;19920;52.242;20.940;2023-05-10T12:55:30;20.70;79.20
33594;DHT22;19920;52.242;20.940;2023-05-10T12:57:56;20.70;79.70
33594;DHT22;19920;52.242;20.940;2023-05-10T13:00:22;20.70;78.20
33594;DHT22;19920;52.242;20.940;2023-05-10T13:02:47;20.70;79.50
33594;DHT22;19920;52.242;20.940;2023-05-10T13:05:13;20.80;79.80
33594;DHT22;19920;52.242;20.940;2023-05-10T13:07:39;20.90;79.30
33594;DHT22;19920;52.242;20.940;2023-05-10T13:10:06;20.80;79.60
33594;DHT22;19920;52.242;20.940;2023-05-10T13:12:32;20.70;78.30
33594;DHT22;19920;52.242;20.940;2023-05-10T13:14:57;20.80;78.90
33594;DHT22;19920;52.242;20.940;2023-05-10T13:17:24;20.80;79.10
33594;DHT22;19920;52.242;20.940;2023-05-10T13:19:50;20.90;78.40
33594;DHT22;19920;52.242;20.940;2023-05-10T13:22:16;21.00;78.60
33594;DHT22;19920;52.242;20.940;2023-05-10T13:24:41;21.00;75.60
33594;DHT22;19920;52.242;20.940;2023-05-10T13:27:07;21.40;78.90
33594;DHT22;19920;52.242;20.940;2023-05-10T13:29:33;21.60;77.70
33594;DHT22;19920;52.242;20.940;2023-05-10T13:31:59;21.60;76.50
33594;DHT22;19920;52.242;20.940;2023-05-10T13:34:25;21.60;76.40
33594;DHT22;19920;52.242;20.940;2023-05-10T13:36:51;21.40;76.50
33594;DHT22;19920;52.242;20.940;2023-05-10T13:39:16;21.40;77.50
33594;DHT22;19920;52.242;20.940;2023-05-10T13:41:42;21.40;76.30
33594;DHT22;19920;52.242;20.940;2023-05-10T13:44:08;21.40;76.60
33594;DHT22;19920;52.242;20.940;2023-05-10T13:46:33;21.50;76.00
33594;DHT22;19920;52.242;20.940;2023-05-10T13:48:59;21.70;75.50
33594;DHT22;19920;52.242;20.940;2023-05-10T13:51:25;21.60;74.80
33594;DHT22;19920;52.242;20.940;2023-05-10T13:53:50;21.50;74.10
33594;DHT22;19920;52.242;20.940;2023-05-10T13:56:16;21.70;75.60
33594;DHT22;19920;52.242;20.940;2023-05-10T13:58:42;21.90;75.30
33594;DHT22;19920;52.242;20.940;2023-05-10T14:01:07;22.10;74.90
33594;DHT22;19920;52.242;20.940;2023-05-10T14:03:33;22.40;73.70
33594;DHT22;19920;52.242;20.940;2023-05-10T14:05:59;22.50;74.70
33594;DHT22;19920;52.242;20.940;2023-05-10T14:08:24;22.90;71.20
33594;DHT22;19920;52.242;20.940;2023-05-10T14:10:52;23.20;73.00
33594;DHT22;19920;52.242;20.940;2023-05-10T14:13:18;23.40;71.40
33594;DHT22;19920;52.242;20.940;2023-05-10T14:15:43;23.70;70.90
33594;DHT22;19920;52.242;20.940;2023-05-10T14:18:09;23.60;71.10
33594;DHT22;19920;52.242;20.940;2023-05-10T14:20:35;23.80;72.40
33594;DHT22;19920;52.242;20.940;2023-05-10T14:23:00;24.20;69.20
33594;DHT22;19920;52.242;20.940;2023-05-10T14:25:26;24.50;67.90
33594;DHT22;19920;52.242;20.940;2023-05-10T14:27:52;25.20;67.60
33594;DHT22;19920;52.242;20.940;2023-05-10T14:30:20;25.60;66.80
33594;DHT22;19920;52.242;20.940;2023-05-10T14:32:45;26.20;64.80
33594;DHT22;19920;52.242;20.940;2023-05-10T14:35:11;27.00;65.40
33594;DHT22;19920;52.242;20.940;2023-05-10T14:37:38;27.70;64.00
33594;DHT22;19920;52.242;20.940;2023-05-10T14:40:04;28.50;62.70
33594;DHT22;19920;52.242;20.940;2023-05-10T14:42:30;29.60;60.70
33594;DHT22;19920;52.242;20.940;2023-05-10T14:44:56;29.60;59.30
33594;DHT22;19920;52.242;20.940;2023-05-10T14:47:22;29.80;58.50
33594;DHT22;19920;52.242;20.940;2023-05-10T14:49:47;30.30;56.70
33594;DHT22;19920;52.242;20.940;2023-05-10T14:52:13;30.80;56.50
33594;DHT22;19920;52.242;20.940;2023-05-10T14:54:39;31.10;55.50
33594;DHT22;19920;52.242;20.940;2023-05-10T14:57:06;31.10;54.30
33594;DHT22;19920;52.242;20.940;2023-05-10T14:59:32;31.10;54.30
33594;DHT22;19920;52.242;20.940;2023-05-10T15:01:57;31.50;53.00
33594;DHT22;19920;52.242;20.940;2023-05-10T15:04:23;31.30;53.70
33594;DHT22;19920;52.242;20.940;2023-05-10T15:06:48;30.50;52.70
33594;DHT22;19920;52.242;20.940;2023-05-10T15:09:14;31.30;53.00
33594;DHT22;19920;52.242;20.940;2023-05-10T15:11:41;31.70;51.70
33594;DHT22;19920;52.242;20.940;2023-05-10T15:14:07;31.80;51.20
33594;DHT22;19920;52.242;20.940;2023-05-10T15:16:33;31.60;51.30
33594;DHT22;19920;52.242;20.940;2023-05-10T15:18:58;31.60;51.80
33594;DHT22;19920;52.242;20.940;2023-05-10T15:21:24;31.80;51.90
33594;DHT22;19920;52.242;20.940;2023-05-10T15:23:49;31.60;51.80
33594;DHT22;19920;52.242;20.940;2023-05-10T15:26:15;31.60;50.90
33594;DHT22;19920;52.242;20.940;2023-05-10T15:28:41;32.00;51.30
33594;DHT22;19920;52.242;20.940;2023-05-10T15:31:06;31.60;50.00
33594;DHT22;19920;52.242;20.940;2023-05-10T15:33:32;30.90;51.20
33594;DHT22;19920;52.242;20.940;2023-05-10T15:35:58;30.90;50.50
33594;DHT22;19920;52.242;20.940;2023-05-10T15:38:23;31.00;51.60
33594;DHT22;19920;52.242;20.940;2023-05-10T15:40:49;31.20;51.30
33594;DHT22;19920;52.242;20.940;2023-05-10T15:43:14;30.80;52.10
33594;DHT22;19920;52.242;20.940;2023-05-10T15:45:40;30.70;51.20
33594;DHT22;19920;52.242;20.940;2023-05-10T15:48:06;30.90;50.70
33594;DHT22;19920;52.242;20.940;2023-05-10T15:50:32;30.90;50.90
33594;DHT22;19920;52.242;20.940;2023-05-10T15:52:57;30.90;50.80
33594;DHT22;19920;52.242;20.940;2023-05-10T15:55:23;31.40;50.00
33594;DHT22;19920;52.242;20.940;2023-05-10T15:57:49;31.10;49.70
33594;DHT22;19920;52.242;20.940;2023-05-10T16:00:16;31.30;49.60
33594;DHT22;19920;52.242;20.940;2023-05-10T16:02:42;31.10;49.50
33594;DHT22;19920;52.242;20.940;2023-05-10T16:05:08;31.10;49.50
33594;DHT22;19920;52.242;20.940;2023-05-10T16:07:34;31.00;50.20
33594;DHT22;19920;52.242;20.940;2023-05-10T16:09:59;30.30;49.90
33594;DHT22;19920;52.242;20.940;2023-05-10T16:12:29;30.20;49.40